Time;durP1;ratioP1;P1;durP2;ratioP2;P2;SDS_P1;SDS_P2;PMS_P1;PMS_P2;Temp;Humidity;BMP_temperature;BMP_pressure;BME280_temperature;BME280_humidity;BME280_pressure;Samples;Min_cycle;Max_cycle;Signal;HPM_P1;HPM_P2
2023/05/11 00:01:25;;;;;;;7.00;2.30;;;10.10;99.90;;;;;;4821872;29;20054;-60
2023/05/11 00:03:54;;;;;;;4.10;1.85;;;10.10;99.90;;;;;;4834769;29;20054;-60
2023/05/11 00:06:23;;;;;;;9.85;2.20;;;10.10;99.90;;;;;;4841794;29;20518;-61
2023/05/11 00:08:55;;;;;;;6.97;2.55;;;10.20;99.90;;;;;;4841908;29;20042;-59
2023/05/11 00:11:25;;;;;;;6.57;2.00;;;10.20;99.90;;;;;;4841698;29;20057;-60
2023/05/11 00:13:52;;;;;;;7.78;2.35;;;10.20;99.90;;;;;;4840865;29;20046;-59
2023/05/11 00:16:20;;;;;;;8.85;2.55;;;10.30;99.90;;;;;;4831543;29;20405;-60
2023/05/11 00:18:49;;;;;;;7.88;2.28;;;10.30;99.90;;;;;;4840203;29;20061;-58
2023/05/11 00:21:17;;;;;;;8.40;2.47;;;10.30;99.90;;;;;;4824558;29;20050;-60
2023/05/11 00:23:45;;;;;;;6.35;2.33;;;10.30;99.90;;;;;;4840592;29;20362;-60
2023/05/11 00:26:13;;;;;;;8.25;2.53;;;10.40;99.90;;;;;;4839646;29;20380;-60
2023/05/11 00:28:44;;;;;;;18.63;4.28;;;10.40;99.90;;;;;;4838621;29;20057;-60
2023/05/11 00:31:12;;;;;;;7.68;3.22;;;10.40;99.90;;;;;;4824001;29;20050;-60
2023/05/11 00:33:40;;;;;;;7.88;3.00;;;10.40;99.90;;;;;;4829331;29;20682;-60
2023/05/11 00:36:07;;;;;;;10.30;2.97;;;10.40;99.90;;;;;;4828866;29;20046;-59
2023/05/11 00:38:39;;;;;;;6.32;2.75;;;10.40;99.90;;;;;;4814387;29;20041;-60
2023/05/11 00:41:07;;;;;;;11.15;2.78;;;10.40;99.90;;;;;;4838221;29;20046;-60
2023/05/11 00:43:35;;;;;;;7.82;2.58;;;10.40;99.90;;;;;;4823919;29;20061;-61
2023/05/11 00:46:07;;;;;;;7.63;3.35;;;10.40;99.90;;;;;;4826121;29;20395;-60
2023/05/11 00:48:36;;;;;;;4.47;2.42;;;10.40;99.90;;;;;;4830727;29;20057;-59
2023/05/11 00:51:05;;;;;;;8.80;2.35;;;10.40;99.90;;;;;;4822440;29;20061;-59
2023/05/11 00:53:39;;;;;;;6.50;2.50;;;10.30;99.90;;;;;;4840028;29;20057;-60
2023/05/11 00:56:10;;;;;;;4.80;2.63;;;11.60;99.90;;;;;;4840281;29;20391;-60
2023/05/11 00:58:38;;;;;;;10.70;2.70;;;10.30;99.90;;;;;;4820869;29;20058;-61
2023/05/11 01:01:06;;;;;;;5.88;2.60;;;10.40;99.90;;;;;;4823175;29;20054;-59
2023/05/11 01:03:36;;;;;;;5.55;2.20;;;10.40;99.90;;;;;;4831333;29;20081;-60
2023/05/11 01:06:22;;;;;;;9.27;2.55;;;10.40;99.90;;;;;;4836727;29;20493;-60
2023/05/11 01:09:05;;;;;;;4.80;2.63;;;10.40;99.90;;;;;;4839869;29;20634;-60
2023/05/11 01:11:48;;;;;;;7.10;2.42;;;10.40;99.90;;;;;;4839701;29;20065;-59
2023/05/11 01:14:20;;;;;;;11.32;2.97;;;10.40;99.90;;;;;;4839889;29;20418;-60
2023/05/11 01:16:54;;;;;;;6.93;2.80;;;10.40;99.90;;;;;;4821070;29;20050;-60
2023/05/11 01:19:47;;;;;;;7.93;3.10;;;10.40;99.90;;;;;;4834771;29;20070;-59
2023/05/11 01:22:25;;;;;;;7.25;2.80;;;10.40;99.90;;;;;;4838573;29;20073;-59
2023/05/11 01:25:06;;;;;;;6.80;3.05;;;10.40;99.90;;;;;;4838097;29;20053;-60
2023/05/11 01:28:06;;;;;;;6.80;2.78;;;10.40;99.90;;;;;;4839013;29;20054;-60
2023/05/11 01:30:55;;;;;;;7.18;2.92;;;10.40;99.90;;;;;;4833092;29;20526;-59
2023/05/11 01:33:50;;;;;;;7.80;3.35;;;10.40;99.90;;;;;;4824641;29;20069;-59
2023/05/11 01:36:20;;;;;;;9.13;3.10;;;10.40;99.90;;;;;;4836880;29;20057;-59
2023/05/11 01:38:49;;;;;;;5.63;2.83;;;10.30;99.90;;;;;;4842669;29;20057;-59
2023/05/11 01:41:21;;;;;;;6.95;2.80;;;10.30;99.90;;;;;;4842287;29;20057;-62
2023/05/11 01:44:02;;;;;;;8.38;3.25;;;10.30;99.90;;;;;;4841910;29;20054;-59
2023/05/11 01:46:32;;;;;;;6.40;3.13;;;10.30;99.90;;;;;;4841309;29;20065;-58
2023/05/11 01:49:05;;;;;;;5.15;2.70;;;10.30;99.90;;;;;;4842900;29;20070;-59
2023/05/11 01:51:38;;;;;;;12.13;3.53;;;10.20;99.90;;;;;;4842960;29;20050;-59
2023/05/11 01:54:08;;;;;;;10.35;3.08;;;10.30;99.90;;;;;;4844347;29;20053;-60
2023/05/11 01:56:41;;;;;;;6.80;3.05;;;10.30;99.90;;;;;;4813049;29;20045;-59
2023/05/11 01:59:11;;;;;;;6.70;2.80;;;10.30;99.90;;;;;;4842405;29;20054;-60
2023/05/11 02:01:40;;;;;;;9.88;3.90;;;10.30;99.90;;;;;;4826437;29;20038;-59
2023/05/11 02:04:09;;;;;;;10.65;3.78;;;10.20;99.90;;;;;;4842457;29;20050;-59
2023/05/11 02:06:38;;;;;;;5.35;2.58;;;10.30;99.90;;;;;;4841750;29;20046;-60
2023/05/11 02:09:08;;;;;;;4.90;3.37;;;10.30;99.90;;;;;;4842559;29;20050;-59
2023/05/11 02:11:39;;;;;;;14.60;3.40;;;10.30;99.90;;;;;;4840723;29;20041;-60
2023/05/11 02:14:09;;;;;;;7.00;3.65;;;10.30;99.90;;;;;;4841036;29;20061;-58
2023/05/11 02:16:37;;;;;;;10.57;3.95;;;10.30;99.90;;;;;;4842186;29;20065;-59
2023/05/11 02:19:07;;;;;;;5.20;3.28;;;10.30;99.90;;;;;;4843367;29;20046;-59
2023/05/11 02:21:40;;;;;;;6.50;3.40;;;10.30;99.90;;;;;;4840760;29;20133;-60
2023/05/11 02:24:08;;;;;;;9.63;4.30;;;;;;;;;;4842080;29;20057;-60
2023/05/11 02:26:36;;;;;;;7.32;3.88;;;10.20;99.90;;;;;;4840043;29;20522;-60
2023/05/11 02:29:05;;;;;;;9.43;4.28;;;10.20;99.90;;;;;;4840163;29;20658;-60
2023/05/11 02:31:39;;;;;;;10.98;4.10;;;10.30;99.90;;;;;;4837391;29;20054;-59
2023/05/11 02:34:21;;;;;;;8.57;3.72;;;10.20;99.90;;;;;;4824489;29;20046;-59
2023/05/11 02:36:54;;;;;;;9.60;4.22;;;10.30;99.90;;;;;;4840755;29;20038;-60
2023/05/11 02:39:32;;;;;;;7.03;3.97;;;10.30;99.90;;;;;;4822749;29;20065;-60
2023/05/11 02:42:17;;;;;;;9.10;3.78;;;10.30;99.90;;;;;;4836933;29;20499;-59
2023/05/11 02:44:55;;;;;;;8.57;3.50;;;10.30;99.90;;;;;;4837759;29;20058;-59
2023/05/11 02:47:28;;;;;;;5.68;3.78;;;10.30;99.90;;;;;;4840505;29;20046;-59
2023/05/11 02:50:00;;;;;;;7.72;3.25;;;10.30;99.90;;;;;;4841000;29;20049;-59
2023/05/11 02:52:32;;;;;;;11.30;4.80;;;10.30;99.90;;;;;;4840487;29;20057;-60
2023/05/11 02:55:03;;;;;;;6.80;3.60;;;10.30;99.90;;;;;;4840590;29;20400;-59
2023/05/11 02:57:31;;;;;;;14.43;3.70;;;10.30;99.90;;;;;;4841010;29;20057;-59
2023/05/11 03:00:04;;;;;;;12.77;3.90;;;10.30;99.90;;;;;;4840397;29;20049;-59
2023/05/11 03:02:32;;;;;;;15.10;4.00;;;10.30;99.90;;;;;;4842173;29;20072;-59
2023/05/11 03:05:01;;;;;;;12.00;3.97;;;10.30;99.90;;;;;;4841508;29;20502;-58
2023/05/11 03:07:32;;;;;;;6.30;3.55;;;10.30;99.90;;;;;;4840548;29;20042;-59
2023/05/11 03:10:01;;;;;;;12.95;3.50;;;10.30;99.90;;;;;;4839927;29;20486;-59
2023/05/11 03:12:35;;;;;;;9.43;3.42;;;10.30;99.90;;;;;;4840166;29;20529;-58
2023/05/11 03:15:03;;;;;;;16.90;4.13;;;10.30;99.90;;;;;;4825384;29;20054;-58
2023/05/11 03:17:34;;;;;;;10.65;4.88;;;10.30;99.90;;;;;;4839312;29;21434;-60
2023/05/11 03:20:05;;;;;;;6.88;3.58;;;10.30;99.90;;;;;;4839427;29;20087;-60
2023/05/11 03:22:35;;;;;;;7.35;3.60;;;10.30;99.90;;;;;;4824181;29;20063;-59
2023/05/11 03:25:04;;;;;;;12.63;4.18;;;10.30;99.90;;;;;;4836912;29;20054;-59
2023/05/11 03:27:35;;;;;;;9.75;3.95;;;10.30;99.90;;;;;;4820952;29;20073;-57
2023/05/11 03:30:08;;;;;;;9.30;3.53;;;10.40;99.90;;;;;;4851321;29;20053;-60
2023/05/11 03:32:41;;;;;;;8.38;3.85;;;10.40;99.90;;;;;;4832232;29;20056;-60
2023/05/11 03:35:09;;;;;;;9.98;4.07;;;10.40;99.90;;;;;;4839764;29;20054;-60
2023/05/11 03:37:38;;;;;;;11.65;3.55;;;10.40;99.90;;;;;;4839387;29;20056;-58
2023/05/11 03:40:11;;;;;;;11.60;3.83;;;10.40;99.90;;;;;;4839710;29;20482;-59
2023/05/11 03:42:48;;;;;;;12.82;3.78;;;10.40;99.90;;;;;;4821718;29;20046;-59
2023/05/11 03:45:19;;;;;;;8.75;4.05;;;10.50;99.90;;;;;;4821590;29;20053;-60
2023/05/11 03:47:50;;;;;;;12.73;4.32;;;10.50;99.90;;;;;;4821514;29;20059;-59
2023/05/11 03:50:20;;;;;;;8.40;3.78;;;10.40;99.90;;;;;;4837583;29;20042;-59
2023/05/11 03:52:48;;;;;;;15.73;4.20;;;10.50;99.90;;;;;;4841077;29;20046;-59
2023/05/11 03:55:16;;;;;;;11.55;4.40;;;10.50;99.90;;;;;;4839741;29;20056;-58
2023/05/11 03:57:45;;;;;;;8.75;4.32;;;10.40;99.90;;;;;;4840666;29;20498;-60
2023/05/11 04:00:15;;;;;;;9.02;3.85;;;10.40;99.90;;;;;;4838894;29;20395;-58
2023/05/11 04:02:44;;;;;;;8.80;4.82;;;10.40;99.90;;;;;;4838967;29;20073;-58
2023/05/11 04:05:12;;;;;;;12.50;4.32;;;10.40;99.90;;;;;;4840276;29;20380;-58
2023/05/11 04:07:44;;;;;;;7.22;4.53;;;10.40;99.90;;;;;;4839662;29;20498;-58
2023/05/11 04:10:12;;;;;;;7.47;3.30;;;10.40;99.90;;;;;;4849952;29;20050;-59
2023/05/11 04:12:40;;;;;;;12.98;4.25;;;10.40;99.90;;;;;;4823919;29;20405;-59
2023/05/11 04:15:08;;;;;;;11.15;4.22;;;10.40;99.90;;;;;;4839045;29;20042;-59
2023/05/11 04:17:35;;;;;;;9.43;4.22;;;10.40;99.90;;;;;;4820761;29;20054;-59
2023/05/11 04:20:04;;;;;;;10.77;4.40;;;10.40;99.90;;;;;;4836075;29;20042;-59
2023/05/11 04:22:32;;;;;;;9.50;4.32;;;10.40;99.90;;;;;;4839926;29;20059;-60
2023/05/11 04:25:00;;;;;;;8.50;3.75;;;10.40;99.90;;;;;;4838970;29;20046;-59
2023/05/11 04:27:32;;;;;;;9.90;4.38;;;10.40;99.90;;;;;;4838379;29;20054;-59
2023/05/11 04:30:01;;;;;;;10.93;4.05;;;10.30;99.90;;;;;;4840439;29;20060;-60
2023/05/11 04:32:31;;;;;;;;;;;10.30;99.90;;;;;;4839971;29;20058;-59
2023/05/11 04:34:59;;;;;;;13.43;3.72;;;10.30;99.90;;;;;;4840798;29;20396;-58
2023/05/11 04:37:31;;;;;;;11.90;4.50;;;10.30;99.90;;;;;;4846166;29;20050;-57
2023/05/11 04:40:00;;;;;;;7.50;3.40;;;10.30;99.90;;;;;;4841957;29;20050;-58
2023/05/11 04:42:30;;;;;;;;;;;10.30;99.90;;;;;;4843017;29;20053;-59
2023/05/11 04:45:00;;;;;;;10.77;3.50;;;10.30;99.90;;;;;;4841782;29;19924;-59
2023/05/11 04:47:29;;;;;;;18.98;4.15;;;10.30;99.90;;;;;;4836755;29;20055;-60
2023/05/11 04:49:57;;;;;;;17.77;6.10;;;10.30;99.90;;;;;;4823626;29;20076;-58
2023/05/11 04:52:25;;;;;;;9.32;4.30;;;10.30;99.90;;;;;;4838875;29;20065;-60
2023/05/11 04:54:53;;;;;;;7.95;3.92;;;10.30;99.90;;;;;;4823964;29;20038;-59
2023/05/11 04:57:21;;;;;;;11.05;4.53;;;10.30;99.90;;;;;;4834951;29;20411;-60
2023/05/11 04:59:49;;;;;;;15.48;4.03;;;10.30;99.90;;;;;;4838905;29;20046;-59
2023/05/11 05:02:16;;;;;;;10.52;4.70;;;10.40;99.90;;;;;;4832707;29;20292;-60
2023/05/11 05:04:44;;;;;;;15.23;4.50;;;10.40;99.90;;;;;;4822035;29;20058;-60
2023/05/11 05:07:12;;;;;;;11.23;4.30;;;10.40;99.90;;;;;;4819498;29;20061;-61
2023/05/11 05:09:41;;;;;;;8.85;4.47;;;;;;;;;;4838070;29;20050;-59
2023/05/11 05:12:12;;;;;;;15.57;4.70;;;10.50;99.90;;;;;;4835934;29;20050;-60
2023/05/11 05:14:40;;;;;;;11.90;4.60;;;10.50;99.90;;;;;;4832844;29;20491;-60
2023/05/11 05:17:08;;;;;;;11.73;4.90;;;10.60;99.90;;;;;;4835875;29;20050;-60
2023/05/11 05:19:37;;;;;;;10.85;4.22;;;10.60;99.90;;;;;;4832950;29;20053;-60
2023/05/11 05:22:05;;;;;;;9.82;3.72;;;10.60;99.90;;;;;;4837699;29;20050;-59
2023/05/11 05:24:34;;;;;;;9.10;3.85;;;10.60;99.90;;;;;;4831740;29;20061;-60
2023/05/11 05:27:03;;;;;;;7.50;3.83;;;10.70;99.90;;;;;;4832611;29;20045;-60
2023/05/11 05:29:31;;;;;;;7.63;4.50;;;10.80;99.90;;;;;;4817708;29;20410;-60
2023/05/11 05:32:00;;;;;;;12.10;4.07;;;10.70;99.90;;;;;;4829641;29;20050;-58
2023/05/11 05:34:32;;;;;;;10.30;3.75;;;10.80;99.90;;;;;;4834146;29;20517;-60
2023/05/11 05:36:59;;;;;;;6.28;4.40;;;10.90;99.90;;;;;;4830653;29;20055;-60
2023/05/11 05:39:28;;;;;;;14.18;4.85;;;10.90;99.90;;;;;;4836762;29;20053;-59
2023/05/11 05:41:56;;;;;;;12.85;4.68;;;10.90;99.90;;;;;;4840105;29;20050;-59
2023/05/11 05:44:25;;;;;;;12.70;5.32;;;10.90;99.90;;;;;;4828145;29;20065;-59
2023/05/11 05:46:54;;;;;;;7.82;5.22;;;10.90;99.90;;;;;;4821665;29;20533;-60
2023/05/11 05:49:22;;;;;;;12.82;4.97;;;10.90;99.90;;;;;;4830694;29;20046;-60
2023/05/11 05:51:50;;;;;;;7.85;4.55;;;10.90;99.90;;;;;;4835001;29;20569;-59
2023/05/11 05:54:18;;;;;;;12.45;5.53;;;11.00;99.90;;;;;;4831808;29;20050;-59
2023/05/11 05:56:47;;;;;;;9.82;4.45;;;11.00;99.90;;;;;;4818465;29;20057;-59
2023/05/11 05:59:14;;;;;;;8.50;4.25;;;11.10;99.90;;;;;;4817564;29;20058;-60
2023/05/11 06:01:46;;;;;;;14.60;6.03;;;10.90;99.90;;;;;;4831304;29;20054;-59
2023/05/11 06:04:15;;;;;;;10.95;3.92;;;11.10;99.90;;;;;;4835967;29;20065;-61
2023/05/11 06:06:44;;;;;;;10.73;3.97;;;11.20;99.90;;;;;;4832884;29;20490;-59
2023/05/11 06:09:13;;;;;;;18.30;4.65;;;11.10;99.90;;;;;;4833527;29;20058;-60
2023/05/11 06:11:42;;;;;;;7.88;3.70;;;11.20;99.90;;;;;;4824527;29;20046;-58
2023/05/11 06:14:10;;;;;;;13.55;3.67;;;11.20;99.90;;;;;;4821402;29;20042;-60
2023/05/11 06:16:41;;;;;;;8.40;3.20;;;11.30;99.90;;;;;;4837347;29;20060;-60
2023/05/11 06:19:08;;;;;;;8.63;3.60;;;11.40;99.90;;;;;;4827579;29;20069;-60
2023/05/11 06:21:37;;;;;;;7.57;3.30;;;11.40;99.90;;;;;;4832617;29;20053;-60
2023/05/11 06:24:05;;;;;;;6.82;3.15;;;11.40;99.90;;;;;;4838147;29;20164;-61
2023/05/11 06:26:35;;;;;;;9.32;3.35;;;11.40;99.90;;;;;;4837339;29;20052;-60
2023/05/11 06:29:02;;;;;;;8.55;3.70;;;11.60;99.90;;;;;;4821010;29;20053;-60
2023/05/11 06:31:30;;;;;;;12.13;3.40;;;11.60;99.90;;;;;;4836145;29;20053;-59
2023/05/11 06:33:59;;;;;;;7.03;2.95;;;11.70;99.90;;;;;;4814113;29;20065;-61
2023/05/11 06:36:29;;;;;;;10.07;3.67;;;11.80;99.90;;;;;;4818515;29;20505;-62
2023/05/11 06:38:58;;;;;;;5.10;3.00;;;12.00;99.90;;;;;;4821113;29;20074;-60
2023/05/11 06:41:27;;;;;;;9.32;2.85;;;12.00;99.90;;;;;;4818171;29;20402;-60
2023/05/11 06:43:56;;;;;;;14.90;3.13;;;12.00;99.90;;;;;;4833832;29;20577;-61
2023/05/11 06:46:33;;;;;;;8.43;2.90;;;12.10;99.90;;;;;;4822071;29;20087;-60
2023/05/11 06:49:01;;;;;;;7.00;2.35;;;12.20;99.90;;;;;;4835805;29;20057;-61
2023/05/11 06:51:32;;;;;;;8.35;2.67;;;12.20;99.90;;;;;;4837038;29;20061;-60
2023/05/11 06:54:00;;;;;;;6.43;2.22;;;12.20;99.90;;;;;;4833841;29;20624;-60
2023/05/11 06:56:30;;;;;;;5.90;2.50;;;12.30;99.90;;;;;;4820040;29;20057;-61
2023/05/11 06:58:58;;;;;;;11.90;2.70;;;12.30;99.90;;;;;;4834180;29;20050;-61
2023/05/11 07:01:27;;;;;;;8.90;2.78;;;12.40;99.90;;;;;;4833596;29;20399;-61
2023/05/11 07:03:57;;;;;;;7.68;3.28;;;12.40;99.90;;;;;;4824807;29;20305;-61
2023/05/11 07:06:27;;;;;;;9.10;3.07;;;12.50;99.90;;;;;;4823503;29;20065;-60
2023/05/11 07:08:55;;;;;;;7.35;3.10;;;12.60;99.90;;;;;;4834473;29;20811;-61
2023/05/11 07:11:24;;;;;;;11.93;3.75;;;12.60;99.90;;;;;;4837181;29;20050;-61
2023/05/11 07:13:52;;;;;;;7.03;3.08;;;12.70;99.90;;;;;;4837364;29;20046;-60
2023/05/11 07:16:20;;;;;;;6.25;3.05;;;12.70;99.90;;;;;;4837606;29;20046;-61
2023/05/11 07:18:48;;;;;;;5.22;2.90;;;12.80;99.90;;;;;;4831433;29;20053;-61
2023/05/11 07:21:16;;;;;;;7.82;2.55;;;12.90;99.90;;;;;;4837080;29;20077;-61
2023/05/11 07:23:44;;;;;;;9.27;2.70;;;12.90;99.90;;;;;;4837410;29;20070;-60
2023/05/11 07:26:12;;;;;;;6.72;2.55;;;12.90;99.90;;;;;;4836961;29;20419;-60
2023/05/11 07:28:40;;;;;;;4.95;2.47;;;13.00;99.90;;;;;;4837398;29;20384;-61
2023/05/11 07:31:08;;;;;;;5.50;2.80;;;13.00;99.90;;;;;;4837135;29;20050;-60
2023/05/11 07:33:38;;;;;;;6.20;2.50;;;13.10;99.90;;;;;;4834958;29;20054;-59
2023/05/11 07:36:08;;;;;;;5.88;2.85;;;13.20;99.90;;;;;;4833528;29;20050;-60
2023/05/11 07:38:37;;;;;;;3.85;2.50;;;13.10;99.90;;;;;;4832508;29;20050;-60
2023/05/11 07:41:06;;;;;;;6.20;2.42;;;13.30;99.90;;;;;;4832248;29;20058;-61
2023/05/11 07:43:37;;;;;;;8.45;2.30;;;13.30;99.90;;;;;;4834233;29;20565;-61
2023/05/11 07:46:06;;;;;;;4.70;2.47;;;13.40;99.90;;;;;;4832814;29;20068;-61
2023/05/11 07:48:34;;;;;;;12.43;2.25;;;13.50;99.90;;;;;;4834623;29;20073;-65
2023/05/11 07:51:02;;;;;;;5.20;2.20;;;13.50;99.90;;;;;;4824755;29;20050;-61
2023/05/11 07:53:30;;;;;;;4.05;2.05;;;13.60;99.90;;;;;;4836550;29;20410;-60
2023/05/11 07:55:59;;;;;;;5.63;2.30;;;13.60;99.90;;;;;;4837343;29;20058;-61
2023/05/11 07:58:27;;;;;;;7.13;2.33;;;13.70;99.90;;;;;;4836386;29;20058;-62
2023/05/11 08:00:56;;;;;;;3.33;1.85;;;13.80;99.90;;;;;;4835263;29;20042;-61
2023/05/11 08:03:24;;;;;;;5.28;2.42;;;13.80;99.90;;;;;;4836688;29;20508;-62
2023/05/11 08:05:53;;;;;;;4.78;2.05;;;13.90;99.90;;;;;;4831848;29;20510;-61
2023/05/11 08:08:21;;;;;;;5.60;2.08;;;14.00;99.90;;;;;;4835515;29;20399;-61
2023/05/11 08:10:49;;;;;;;5.20;1.35;;;14.00;99.90;;;;;;4836541;29;20064;-61
2023/05/11 08:13:17;;;;;;;3.08;1.63;;;14.20;99.90;;;;;;4836001;29;20045;-61
2023/05/11 08:15:47;;;;;;;5.50;1.70;;;14.20;99.90;;;;;;4840996;29;20050;-61
2023/05/11 08:18:18;;;;;;;3.33;1.40;;;14.30;99.90;;;;;;4820479;29;20396;-61
2023/05/11 08:20:46;;;;;;;4.75;1.70;;;14.30;99.90;;;;;;4823744;29;20058;-60
2023/05/11 08:23:17;;;;;;;4.22;1.65;;;14.30;99.90;;;;;;4833174;29;20050;-62
2023/05/11 08:25:52;;;;;;;10.98;1.98;;;14.20;99.90;;;;;;4840860;29;20054;-62
2023/05/11 08:28:21;;;;;;;8.15;1.98;;;14.20;99.90;;;;;;4820310;29;20042;-60
2023/05/11 08:30:56;;;;;;;6.97;2.53;;;14.10;99.90;;;;;;4838443;29;20065;-61
2023/05/11 08:33:24;;;;;;;2.95;1.40;;;14.00;99.90;;;;;;4822194;29;20544;-62
2023/05/11 08:36:09;;;;;;;3.83;1.52;;;14.00;99.90;;;;;;4838465;29;20525;-61
2023/05/11 08:38:37;;;;;;;5.95;1.52;;;13.80;99.90;;;;;;4838672;29;20050;-59
2023/05/11 08:41:07;;;;;;;5.73;1.17;;;13.80;99.90;;;;;;4838899;29;20505;-61
2023/05/11 08:43:38;;;;;;;2.38;1.50;;;13.80;99.90;;;;;;4835424;29;20301;-60
2023/05/11 08:46:09;;;;;;;4.32;1.60;;;13.80;99.90;;;;;;4838099;29;20065;-60
2023/05/11 08:48:37;;;;;;;2.90;1.60;;;13.80;99.90;;;;;;4832737;29;20494;-60
2023/05/11 08:51:08;;;;;;;4.80;1.45;;;13.90;99.90;;;;;;4831857;29;20426;-61
2023/05/11 08:53:37;;;;;;;3.78;1.20;;;13.90;99.90;;;;;;4831980;29;20406;-61
2023/05/11 08:56:08;;;;;;;3.05;1.48;;;14.10;99.90;;;;;;4829920;29;20061;-61
2023/05/11 08:58:39;;;;;;;2.42;1.88;;;13.80;99.90;;;;;;4837829;29;20053;-61
2023/05/11 09:01:09;;;;;;;5.75;1.73;;;14.20;99.90;;;;;;4825675;29;20049;-61
2023/05/11 09:03:39;;;;;;;3.72;1.55;;;14.30;99.90;;;;;;4827836;29;20555;-62
2023/05/11 09:06:09;;;;;;;3.63;1.55;;;14.60;99.90;;;;;;4828107;29;20798;-60
2023/05/11 09:08:39;;;;;;;4.15;1.17;;;14.60;99.90;;;;;;4833125;29;20046;-62
2023/05/11 09:11:08;;;;;;;4.13;1.40;;;14.70;99.90;;;;;;4839136;29;20518;-60
2023/05/11 09:13:38;;;;;;;4.22;1.40;;;14.80;99.90;;;;;;4833112;29;20077;-61
2023/05/11 09:16:06;;;;;;;5.75;1.20;;;14.90;99.90;;;;;;4840098;29;20221;-65
2023/05/11 09:19:00;;;;;;;4.57;1.30;;;14.90;99.90;;;;;;4833776;29;20042;-61
2023/05/11 09:21:30;;;;;;;3.53;1.70;;;15.10;99.90;;;;;;4821079;29;20392;-62
2023/05/11 09:24:02;;;;;;;1.70;1.20;;;15.10;99.90;;;;;;4832220;29;20380;-62
2023/05/11 09:26:33;;;;;;;6.35;1.80;;;15.20;99.90;;;;;;4834412;29;20053;-60
2023/05/11 09:29:01;;;;;;;3.63;1.40;;;15.30;99.90;;;;;;4839264;29;20061;-60
2023/05/11 09:31:45;;;;;;;7.40;1.50;;;15.30;99.90;;;;;;4836107;29;20058;-62
2023/05/11 09:34:18;;;;;;;5.65;1.45;;;15.30;99.90;;;;;;4835273;29;20053;-61
2023/05/11 09:36:48;;;;;;;5.28;1.52;;;15.40;99.90;;;;;;4837382;29;20070;-60
2023/05/11 09:39:20;;;;;;;3.47;1.42;;;15.30;99.90;;;;;;4838862;29;20053;-61
2023/05/11 09:42:13;;;;;;;3.95;1.23;;;15.30;99.90;;;;;;4837741;29;20061;-61
2023/05/11 09:44:42;;;;;;;3.63;1.40;;;15.20;99.90;;;;;;4838430;29;20049;-61
2023/05/11 09:47:13;;;;;;;2.80;1.30;;;15.10;99.90;;;;;;4819550;29;20915;-61
2023/05/11 09:49:45;;;;;;;1.98;1.05;;;15.00;99.90;;;;;;4835517;29;20061;-61
2023/05/11 09:52:17;;;;;;;1.10;0.90;;;15.00;99.90;;;;;;4837411;29;20057;-61
2023/05/11 09:54:47;;;;;;;2.50;0.93;;;15.00;99.90;;;;;;4835142;29;20495;-61
2023/05/11 09:57:29;;;;;;;1.80;0.63;;;15.00;99.90;;;;;;4832387;29;20054;-61
2023/05/11 09:59:59;;;;;;;2.00;0.63;;;14.90;99.90;;;;;;4833288;29;20061;-61
2023/05/11 10:02:29;;;;;;;3.20;0.80;;;14.80;99.90;;;;;;4833194;29;20247;-60
2023/05/11 10:04:59;;;;;;;2.58;1.00;;;14.80;99.90;;;;;;4834762;29;20061;-61
2023/05/11 10:07:34;;;;;;;3.78;1.17;;;14.70;99.90;;;;;;4838629;29;20061;-62
2023/05/11 10:10:07;;;;;;;3.30;1.33;;;14.70;99.90;;;;;;4837351;29;20673;-62
2023/05/11 10:12:38;;;;;;;1.42;1.10;;;14.70;99.90;;;;;;4837094;29;20058;-60
2023/05/11 10:15:09;;;;;;;2.90;1.20;;;14.70;99.90;;;;;;4837175;29;20431;-61
2023/05/11 10:17:37;;;;;;;1.67;1.15;;;14.70;99.90;;;;;;4838632;29;20054;-61
2023/05/11 10:20:06;;;;;;;2.95;1.02;;;14.70;99.90;;;;;;4832303;29;20047;-61
2023/05/11 10:22:35;;;;;;;2.38;1.35;;;14.80;99.90;;;;;;4832178;29;20053;-61
2023/05/11 10:25:05;;;;;;;4.32;1.40;;;14.90;99.90;;;;;;4837326;29;20045;-60
2023/05/11 10:27:33;;;;;;;3.45;1.48;;;14.90;99.90;;;;;;4837711;29;20053;-62
2023/05/11 10:30:02;;;;;;;2.50;1.33;;;15.00;99.90;;;;;;4837596;29;20053;-62
2023/05/11 10:32:36;;;;;;;4.35;1.65;;;15.10;99.90;;;;;;4837178;29;20065;-60
2023/05/11 10:35:06;;;;;;;4.78;1.10;;;15.10;99.90;;;;;;4818622;29;20049;-61
2023/05/11 10:37:35;;;;;;;10.20;1.52;;;15.20;99.90;;;;;;4825696;29;20056;-61
2023/05/11 10:40:04;;;;;;;4.03;1.25;;;15.20;99.90;;;;;;4837405;29;20060;-61
2023/05/11 10:42:51;;;;;;;2.57;1.37;;;15.20;99.90;;;;;;4838383;29;20050;-63
2023/05/11 10:45:56;;;;;;;3.45;1.50;;;15.20;99.90;;;;;;4835762;29;20501;-62
2023/05/11 10:48:55;;;;;;;3.75;1.55;;;15.40;99.90;;;;;;4837734;29;20049;-63
2023/05/11 10:52:00;;;;;;;7.05;2.13;;;15.50;99.90;;;;;;4823372;29;20045;-62
2023/05/11 10:55:06;;;;;;;4.15;2.00;;;15.60;99.90;;;;;;4820343;29;20051;-64
2023/05/11 10:58:02;;;;;;;1.63;1.38;;;15.80;99.90;;;;;;4822314;29;20045;-61
2023/05/11 11:00:48;;;;;;;3.47;1.33;;;15.80;99.90;;;;;;4837276;29;20081;-63
2023/05/11 11:03:16;;;;;;;3.03;1.10;;;15.90;99.90;;;;;;4836796;29;20053;-61
2023/05/11 11:05:45;;;;;;;4.68;1.40;;;15.90;99.90;;;;;;4829820;29;20062;-62
2023/05/11 11:08:13;;;;;;;2.22;1.15;;;15.90;99.90;;;;;;4828527;29;20050;-62
2023/05/11 11:10:45;;;;;;;3.88;1.15;;;15.90;99.90;;;;;;4837837;29;20057;-62
2023/05/11 11:13:14;;;;;;;2.20;1.23;;;16.00;99.90;;;;;;4836001;29;20110;-61
2023/05/11 11:16:06;;;;;;;4.40;1.50;;;16.00;99.90;;;;;;4836465;29;20054;-63
2023/05/11 11:18:34;;;;;;;4.13;1.52;;;16.00;99.90;;;;;;4829692;29;20057;-63
2023/05/11 11:21:03;;;;;;;6.75;1.65;;;16.00;99.90;;;;;;4830263;29;20047;-62
2023/05/11 11:23:48;;;;;;;3.25;1.70;;;16.10;99.90;;;;;;4832428;29;20058;-62
2023/05/11 11:26:38;;;;;;;5.53;1.67;;;16.10;99.90;;;;;;4837483;29;20057;-62
2023/05/11 11:29:10;;;;;;;3.30;1.57;;;16.20;99.90;;;;;;4834729;29;20053;-63
2023/05/11 11:31:39;;;;;;;3.75;1.60;;;16.40;99.90;;;;;;4837715;29;20399;-62
2023/05/11 11:34:27;;;;;;;4.60;1.50;;;16.40;99.90;;;;;;4835848;29;20054;-62
2023/05/11 11:37:05;;;;;;;3.72;1.25;;;16.50;99.90;;;;;;4822365;29;20041;-63
2023/05/11 11:39:42;;;;;;;1.77;1.30;;;16.50;99.90;;;;;;4819596;29;20046;-62
2023/05/11 11:42:31;;;;;;;6.53;1.58;;;16.50;99.90;;;;;;4837016;29;20398;-61
2023/05/11 11:45:28;;;;;;;3.15;1.60;;;16.70;99.90;;;;;;4835726;29;20057;-62
2023/05/11 11:48:12;;;;;;;2.00;1.20;;;16.70;99.90;;;;;;4837016;29;20406;-62
2023/05/11 11:50:41;;;;;;;2.55;1.10;;;16.80;99.90;;;;;;4821272;29;20061;-63
2023/05/11 11:53:32;;;;;;;4.32;1.45;;;16.90;99.90;;;;;;4837193;29;20057;-63
2023/05/11 11:56:00;;;;;;;1.95;1.25;;;16.90;99.90;;;;;;4820596;29;20050;-62
2023/05/11 11:58:41;;;;;;;3.95;1.23;;;16.80;99.90;;;;;;4836724;29;20046;-62
2023/05/11 12:01:11;;;;;;;2.75;0.95;;;16.80;99.90;;;;;;4834575;29;20052;-63
2023/05/11 12:03:40;;;;;;;3.47;1.10;;;16.80;99.90;;;;;;4833126;29;20053;-65
2023/05/11 12:06:10;;;;;;;1.25;0.90;;;16.90;99.90;;;;;;4827591;29;20053;-62
2023/05/11 12:08:39;;;;;;;1.65;1.05;;;16.90;99.90;;;;;;4834083;29;20537;-62
2023/05/11 12:11:07;;;;;;;2.70;0.90;;;16.90;99.90;;;;;;4835444;29;20042;-63
2023/05/11 12:13:38;;;;;;;3.50;0.88;;;16.90;99.90;;;;;;4833126;29;20057;-60
2023/05/11 12:16:24;;;;;;;2.75;0.90;;;16.90;99.90;;;;;;4829592;29;20485;-62
2023/05/11 12:18:57;;;;;;;1.20;0.70;;;16.90;99.90;;;;;;4835823;29;20049;-63
2023/05/11 12:21:30;;;;;;;5.20;0.80;;;16.80;99.90;;;;;;4836068;29;20070;-63
2023/05/11 12:23:59;;;;;;;;;;;16.80;99.90;;;;;;4836349;29;20054;-62
2023/05/11 12:26:28;;;;;;;0.90;0.60;;;16.80;99.90;;;;;;4835309;29;19931;-64
2023/05/11 12:29:17;;;;;;;1.27;0.80;;;16.90;99.90;;;;;;4836453;29;20529;-63
2023/05/11 12:31:45;;;;;;;2.17;0.90;;;17.00;99.90;;;;;;4837183;29;20300;-62
2023/05/11 12:34:21;;;;;;;2.97;0.82;;;17.00;99.90;;;;;;4835895;29;20049;-63
2023/05/11 12:36:52;;;;;;;2.03;0.80;;;17.10;99.90;;;;;;4828587;29;20661;-62
2023/05/11 12:39:25;;;;;;;2.13;1.10;;;17.30;99.90;;;;;;4834071;29;20050;-63
2023/05/11 12:41:54;;;;;;;4.30;1.20;;;17.30;99.90;;;;;;4835716;29;20063;-61
2023/05/11 12:44:25;;;;;;;1.63;1.05;;;17.30;99.90;;;;;;4836269;29;20053;-63
2023/05/11 12:46:53;;;;;;;1.10;1.00;;;17.30;99.90;;;;;;4836457;29;20049;-62
2023/05/11 12:49:23;;;;;;;4.43;1.08;;;17.30;99.90;;;;;;4833900;29;20058;-62
2023/05/11 12:51:53;;;;;;;2.08;1.08;;;17.20;99.90;;;;;;4827701;29;20054;-63
2023/05/11 12:54:32;;;;;;;4.47;1.08;;;17.20;99.90;;;;;;4833764;29;20057;-62
2023/05/11 12:57:02;;;;;;;1.10;1.00;;;17.20;99.90;;;;;;4836080;29;20050;-63
2023/05/11 12:59:32;;;;;;;1.08;0.80;;;17.30;99.90;;;;;;4834311;29;20050;-62
2023/05/11 13:02:07;;;;;;;3.22;0.70;;;17.60;99.90;;;;;;4838293;29;20058;-63
2023/05/11 13:04:36;;;;;;;3.00;0.90;;;17.60;99.90;;;;;;4832672;29;20545;-63
2023/05/11 13:07:04;;;;;;;3.78;0.90;;;17.90;99.90;;;;;;4829038;29;20254;-63
2023/05/11 13:09:32;;;;;;;1.75;0.80;;;18.30;99.90;;;;;;4840156;29;20060;-64